sensor_id;sensor_type;location;lat;lon;timestamp;P1;durP1;ratioP1;P2;durP2;ratioP2
14849;SDS011;7517;48.400;11.770;2022-08-14T00:01:20;2.27;;;1.67;;
14849;SDS011;7517;48.400;11.770;2022-08-14T00:03:47;2.10;;;1.90;;
14849;SDS011;7517;48.400;11.770;2022-08-14T00:06:15;2.37;;;2.20;;
14849;SDS011;7517;48.400;11.770;2022-08-14T00:08:42;2.27;;;2.13;;
14849;SDS011;7517;48.400;11.770;2022-08-14T00:11:09;2.00;;;1.90;;
14849;SDS011;7517;48.400;11.770;2022-08-14T00:13:36;2.43;;;1.80;;
14849;SDS011;7517;48.400;11.770;2022-08-14T00:16:05;2.00;;;1.90;;
14849;SDS011;7517;48.400;11.770;2022-08-14T00:18:34;1.90;;;1.80;;
14849;SDS011;7517;48.400;11.770;2022-08-14T00:21:01;2.00;;;1.90;;
14849;SDS011;7517;48.400;11.770;2022-08-14T00:23:29;1.97;;;1.87;;
14849;SDS011;7517;48.400;11.770;2022-08-14T00:25:57;1.97;;;1.87;;
14849;SDS011;7517;48.400;11.770;2022-08-14T00:28:24;2.27;;;2.17;;
14849;SDS011;7517;48.400;11.770;2022-08-14T00:30:53;2.27;;;2.17;;
14849;SDS011;7517;48.400;11.770;2022-08-14T00:33:24;1.90;;;1.80;;
14849;SDS011;7517;48.400;11.770;2022-08-14T00:35:52;2.27;;;2.10;;
14849;SDS011;7517;48.400;11.770;2022-08-14T00:38:20;2.00;;;1.90;;
14849;SDS011;7517;48.400;11.770;2022-08-14T00:40:48;1.70;;;1.60;;
14849;SDS011;7517;48.400;11.770;2022-08-14T00:43:16;2.20;;;2.10;;
14849;SDS011;7517;48.400;11.770;2022-08-14T00:45:43;2.00;;;1.90;;
14849;SDS011;7517;48.400;11.770;2022-08-14T00:48:11;1.80;;;1.70;;
14849;SDS011;7517;48.400;11.770;2022-08-14T00:50:39;1.97;;;1.77;;
14849;SDS011;7517;48.400;11.770;2022-08-14T00:53:06;1.90;;;1.80;;
14849;SDS011;7517;48.400;11.770;2022-08-14T00:55:34;2.07;;;1.93;;
14849;SDS011;7517;48.400;11.770;2022-08-14T00:58:05;2.03;;;1.90;;
14849;SDS011;7517;48.400;11.770;2022-08-14T01:00:50;2.10;;;1.90;;
14849;SDS011;7517;48.400;11.770;2022-08-14T01:03:19;2.40;;;2.20;;
14849;SDS011;7517;48.400;11.770;2022-08-14T01:05:49;2.83;;;2.03;;
14849;SDS011;7517;48.400;11.770;2022-08-14T01:08:18;2.20;;;1.70;;
14849;SDS011;7517;48.400;11.770;2022-08-14T01:10:48;3.17;;;1.67;;
14849;SDS011;7517;48.400;11.770;2022-08-14T01:13:16;2.03;;;1.93;;
14849;SDS011;7517;48.400;11.770;2022-08-14T01:15:48;1.73;;;1.63;;
14849;SDS011;7517;48.400;11.770;2022-08-14T01:18:20;1.63;;;1.53;;
14849;SDS011;7517;48.400;11.770;2022-08-14T01:21:08;2.40;;;2.20;;
14849;SDS011;7517;48.400;11.770;2022-08-14T01:23:42;2.07;;;1.97;;
14849;SDS011;7517;48.400;11.770;2022-08-14T01:26:12;2.33;;;2.13;;
14849;SDS011;7517;48.400;11.770;2022-08-14T01:28:44;2.20;;;1.93;;
14849;SDS011;7517;48.400;11.770;2022-08-14T01:31:14;2.77;;;1.83;;
14849;SDS011;7517;48.400;11.770;2022-08-14T01:33:45;2.53;;;1.73;;
14849;SDS011;7517;48.400;11.770;2022-08-14T01:36:16;1.90;;;1.80;;
14849;SDS011;7517;48.400;11.770;2022-08-14T01:38:47;1.90;;;1.80;;
14849;SDS011;7517;48.400;11.770;2022-08-14T01:41:21;1.90;;;1.80;;
14849;SDS011;7517;48.400;11.770;2022-08-14T01:43:53;2.20;;;2.10;;
14849;SDS011;7517;48.400;11.770;2022-08-14T01:46:25;2.13;;;1.87;;
14849;SDS011;7517;48.400;11.770;2022-08-14T01:48:54;1.83;;;1.73;;
14849;SDS011;7517;48.400;11.770;2022-08-14T01:51:23;1.90;;;1.80;;
14849;SDS011;7517;48.400;11.770;2022-08-14T01:53:54;1.77;;;1.67;;
14849;SDS011;7517;48.400;11.770;2022-08-14T01:56:25;1.70;;;1.60;;
14849;SDS011;7517;48.400;11.770;2022-08-14T01:59:02;2.90;;;1.83;;
14849;SDS011;7517;48.400;11.770;2022-08-14T02:01:31;2.10;;;1.90;;
14849;SDS011;7517;48.400;11.770;2022-08-14T02:04:01;1.90;;;1.80;;
14849;SDS011;7517;48.400;11.770;2022-08-14T02:06:29;1.90;;;1.80;;
14849;SDS011;7517;48.400;11.770;2022-08-14T02:08:58;2.80;;;2.10;;
14849;SDS011;7517;48.400;11.770;2022-08-14T02:11:29;1.60;;;1.50;;
14849;SDS011;7517;48.400;11.770;2022-08-14T02:13:59;2.43;;;1.70;;
14849;SDS011;7517;48.400;11.770;2022-08-14T02:16:29;1.83;;;1.73;;
14849;SDS011;7517;48.400;11.770;2022-08-14T02:19:04;2.03;;;1.93;;
14849;SDS011;7517;48.400;11.770;2022-08-14T02:21:33;2.10;;;2.00;;
14849;SDS011;7517;48.400;11.770;2022-08-14T02:24:03;1.73;;;1.63;;
14849;SDS011;7517;48.400;11.770;2022-08-14T02:26:34;1.83;;;1.73;;
14849;SDS011;7517;48.400;11.770;2022-08-14T02:29:04;1.93;;;1.80;;
14849;SDS011;7517;48.400;11.770;2022-08-14T02:31:34;1.73;;;1.63;;
14849;SDS011;7517;48.400;11.770;2022-08-14T02:34:05;1.70;;;1.60;;
14849;SDS011;7517;48.400;11.770;2022-08-14T02:36:35;2.00;;;1.90;;
14849;SDS011;7517;48.400;11.770;2022-08-14T02:39:04;1.93;;;1.83;;
14849;SDS011;7517;48.400;11.770;2022-08-14T02:41:32;1.53;;;1.43;;
14849;SDS011;7517;48.400;11.770;2022-08-14T02:44:01;2.23;;;2.03;;
14849;SDS011;7517;48.400;11.770;2022-08-14T02:46:31;2.27;;;1.60;;
14849;SDS011;7517;48.400;11.770;2022-08-14T02:48:59;1.77;;;1.67;;
14849;SDS011;7517;48.400;11.770;2022-08-14T02:51:27;1.57;;;1.50;;
14849;SDS011;7517;48.400;11.770;2022-08-14T02:53:55;1.73;;;1.63;;
14849;SDS011;7517;48.400;11.770;2022-08-14T02:56:24;1.67;;;1.57;;
14849;SDS011;7517;48.400;11.770;2022-08-14T02:58:51;1.83;;;1.73;;
14849;SDS011;7517;48.400;11.770;2022-08-14T03:01:26;2.00;;;1.80;;
14849;SDS011;7517;48.400;11.770;2022-08-14T03:03:53;1.90;;;1.70;;
14849;SDS011;7517;48.400;11.770;2022-08-14T03:06:21;2.93;;;2.37;;
14849;SDS011;7517;48.400;11.770;2022-08-14T03:08:50;2.40;;;2.30;;
14849;SDS011;7517;48.400;11.770;2022-08-14T03:11:19;4.53;;;1.87;;
14849;SDS011;7517;48.400;11.770;2022-08-14T03:13:48;1.87;;;1.77;;
14849;SDS011;7517;48.400;11.770;2022-08-14T03:16:18;1.70;;;1.60;;
14849;SDS011;7517;48.400;11.770;2022-08-14T03:18:48;2.30;;;1.73;;
14849;SDS011;7517;48.400;11.770;2022-08-14T03:21:18;1.70;;;1.60;;
14849;SDS011;7517;48.400;11.770;2022-08-14T03:23:51;1.80;;;1.70;;
14849;SDS011;7517;48.400;11.770;2022-08-14T03:26:25;1.97;;;1.87;;
14849;SDS011;7517;48.400;11.770;2022-08-14T03:28:54;1.93;;;1.83;;
14849;SDS011;7517;48.400;11.770;2022-08-14T03:31:22;2.30;;;2.20;;
14849;SDS011;7517;48.400;11.770;2022-08-14T03:33:49;2.20;;;2.10;;
14849;SDS011;7517;48.400;11.770;2022-08-14T03:36:18;1.90;;;1.80;;
14849;SDS011;7517;48.400;11.770;2022-08-14T03:38:47;2.37;;;2.17;;
14849;SDS011;7517;48.400;11.770;2022-08-14T03:41:18;2.30;;;2.20;;
14849;SDS011;7517;48.400;11.770;2022-08-14T03:43:48;2.07;;;1.97;;
14849;SDS011;7517;48.400;11.770;2022-08-14T03:46:21;2.20;;;2.00;;
14849;SDS011;7517;48.400;11.770;2022-08-14T03:48:51;1.87;;;1.77;;
14849;SDS011;7517;48.400;11.770;2022-08-14T03:51:20;2.30;;;2.20;;
14849;SDS011;7517;48.400;11.770;2022-08-14T03:53:53;2.80;;;2.13;;
14849;SDS011;7517;48.400;11.770;2022-08-14T03:56:25;1.90;;;1.80;;
14849;SDS011;7517;48.400;11.770;2022-08-14T03:58:54;2.10;;;2.00;;
14849;SDS011;7517;48.400;11.770;2022-08-14T04:01:28;2.20;;;2.10;;
14849;SDS011;7517;48.400;11.770;2022-08-14T04:03:56;2.53;;;2.37;;
14849;SDS011;7517;48.400;11.770;2022-08-14T04:06:26;2.40;;;2.23;;
14849;SDS011;7517;48.400;11.770;2022-08-14T04:08:54;2.43;;;2.17;;
14849;SDS011;7517;48.400;11.770;2022-08-14T04:11:21;2.30;;;2.20;;
14849;SDS011;7517;48.400;11.770;2022-08-14T04:13:48;2.37;;;2.17;;
14849;SDS011;7517;48.400;11.770;2022-08-14T04:16:16;2.77;;;2.13;;
14849;SDS011;7517;48.400;11.770;2022-08-14T04:18:49;2.13;;;2.00;;
14849;SDS011;7517;48.400;11.770;2022-08-14T04:21:19;2.20;;;2.10;;
14849;SDS011;7517;48.400;11.770;2022-08-14T04:23:49;2.20;;;2.10;;
14849;SDS011;7517;48.400;11.770;2022-08-14T04:26:19;2.00;;;1.90;;
14849;SDS011;7517;48.400;11.770;2022-08-14T04:28:47;2.10;;;2.00;;
14849;SDS011;7517;48.400;11.770;2022-08-14T04:31:15;2.07;;;1.87;;
14849;SDS011;7517;48.400;11.770;2022-08-14T04:33:44;3.10;;;1.97;;
14849;SDS011;7517;48.400;11.770;2022-08-14T04:36:13;3.00;;;2.47;;
14849;SDS011;7517;48.400;11.770;2022-08-14T04:38:44;3.90;;;2.30;;
14849;SDS011;7517;48.400;11.770;2022-08-14T04:41:28;2.67;;;2.47;;
14849;SDS011;7517;48.400;11.770;2022-08-14T04:44:12;2.20;;;2.10;;
14849;SDS011;7517;48.400;11.770;2022-08-14T04:46:40;2.30;;;2.10;;
14849;SDS011;7517;48.400;11.770;2022-08-14T04:49:30;2.70;;;2.50;;
14849;SDS011;7517;48.400;11.770;2022-08-14T04:51:58;2.23;;;2.03;;
14849;SDS011;7517;48.400;11.770;2022-08-14T04:54:28;2.57;;;2.37;;
14849;SDS011;7517;48.400;11.770;2022-08-14T04:56:56;2.37;;;2.27;;
14849;SDS011;7517;48.400;11.770;2022-08-14T04:59:23;2.80;;;2.27;;
14849;SDS011;7517;48.400;11.770;2022-08-14T05:01:51;2.30;;;2.20;;
14849;SDS011;7517;48.400;11.770;2022-08-14T05:04:18;2.40;;;2.30;;
14849;SDS011;7517;48.400;11.770;2022-08-14T05:06:47;2.60;;;2.40;;
14849;SDS011;7517;48.400;11.770;2022-08-14T05:09:17;2.27;;;2.17;;
14849;SDS011;7517;48.400;11.770;2022-08-14T05:11:44;2.67;;;2.47;;
14849;SDS011;7517;48.400;11.770;2022-08-14T05:14:12;2.63;;;2.47;;
14849;SDS011;7517;48.400;11.770;2022-08-14T05:16:39;2.43;;;2.23;;
14849;SDS011;7517;48.400;11.770;2022-08-14T05:19:06;2.50;;;2.30;;
14849;SDS011;7517;48.400;11.770;2022-08-14T05:21:38;3.40;;;2.87;;
14849;SDS011;7517;48.400;11.770;2022-08-14T05:24:05;2.90;;;2.70;;
14849;SDS011;7517;48.400;11.770;2022-08-14T05:26:37;2.90;;;2.70;;
14849;SDS011;7517;48.400;11.770;2022-08-14T05:29:06;2.93;;;2.67;;
14849;SDS011;7517;48.400;11.770;2022-08-14T05:31:34;3.20;;;2.90;;
14849;SDS011;7517;48.400;11.770;2022-08-14T05:34:04;3.20;;;3.00;;
14849;SDS011;7517;48.400;11.770;2022-08-14T05:36:31;3.47;;;3.20;;
14849;SDS011;7517;48.400;11.770;2022-08-14T05:38:59;2.97;;;2.77;;
14849;SDS011;7517;48.400;11.770;2022-08-14T05:41:26;3.10;;;2.90;;
14849;SDS011;7517;48.400;11.770;2022-08-14T05:43:55;3.30;;;3.00;;
14849;SDS011;7517;48.400;11.770;2022-08-14T05:46:22;2.93;;;2.73;;
14849;SDS011;7517;48.400;11.770;2022-08-14T05:48:50;3.20;;;3.00;;
14849;SDS011;7517;48.400;11.770;2022-08-14T05:51:21;3.30;;;3.07;;
14849;SDS011;7517;48.400;11.770;2022-08-14T05:53:49;2.87;;;2.67;;
14849;SDS011;7517;48.400;11.770;2022-08-14T05:56:17;2.87;;;2.67;;
14849;SDS011;7517;48.400;11.770;2022-08-14T05:58:44;3.43;;;3.23;;
14849;SDS011;7517;48.400;11.770;2022-08-14T06:01:12;3.37;;;3.17;;
14849;SDS011;7517;48.400;11.770;2022-08-14T06:03:40;3.40;;;3.17;;
14849;SDS011;7517;48.400;11.770;2022-08-14T06:06:07;4.10;;;3.90;;
14849;SDS011;7517;48.400;11.770;2022-08-14T06:08:34;3.57;;;3.37;;
14849;SDS011;7517;48.400;11.770;2022-08-14T06:11:02;3.63;;;3.43;;
14849;SDS011;7517;48.400;11.770;2022-08-14T06:13:33;4.30;;;4.00;;
14849;SDS011;7517;48.400;11.770;2022-08-14T06:16:03;3.20;;;3.00;;
14849;SDS011;7517;48.400;11.770;2022-08-14T06:18:32;3.67;;;3.40;;
14849;SDS011;7517;48.400;11.770;2022-08-14T06:21:00;3.57;;;3.27;;
14849;SDS011;7517;48.400;11.770;2022-08-14T06:23:28;3.57;;;3.27;;
14849;SDS011;7517;48.400;11.770;2022-08-14T06:25:55;3.47;;;3.17;;
14849;SDS011;7517;48.400;11.770;2022-08-14T06:28:23;3.13;;;2.93;;
14849;SDS011;7517;48.400;11.770;2022-08-14T06:30:52;3.57;;;3.27;;
14849;SDS011;7517;48.400;11.770;2022-08-14T06:33:20;2.77;;;2.67;;
14849;SDS011;7517;48.400;11.770;2022-08-14T06:35:49;3.53;;;3.23;;
14849;SDS011;7517;48.400;11.770;2022-08-14T06:38:17;2.93;;;2.73;;
14849;SDS011;7517;48.400;11.770;2022-08-14T06:40:46;2.63;;;2.43;;
14849;SDS011;7517;48.400;11.770;2022-08-14T06:43:15;3.07;;;2.87;;
14849;SDS011;7517;48.400;11.770;2022-08-14T06:45:45;2.87;;;2.67;;
14849;SDS011;7517;48.400;11.770;2022-08-14T06:48:14;3.50;;;3.20;;
14849;SDS011;7517;48.400;11.770;2022-08-14T06:50:44;2.87;;;2.67;;
14849;SDS011;7517;48.400;11.770;2022-08-14T06:53:15;3.20;;;3.00;;
14849;SDS011;7517;48.400;11.770;2022-08-14T06:55:44;3.50;;;3.20;;
14849;SDS011;7517;48.400;11.770;2022-08-14T06:58:13;3.27;;;3.07;;
14849;SDS011;7517;48.400;11.770;2022-08-14T07:00:43;2.87;;;2.67;;
14849;SDS011;7517;48.400;11.770;2022-08-14T07:03:25;3.63;;;3.13;;
14849;SDS011;7517;48.400;11.770;2022-08-14T07:06:11;2.87;;;2.67;;
14849;SDS011;7517;48.400;11.770;2022-08-14T07:08:40;2.83;;;2.63;;
14849;SDS011;7517;48.400;11.770;2022-08-14T07:11:08;3.10;;;2.57;;
14849;SDS011;7517;48.400;11.770;2022-08-14T07:13:37;2.43;;;2.33;;
14849;SDS011;7517;48.400;11.770;2022-08-14T07:16:04;2.27;;;2.17;;
14849;SDS011;7517;48.400;11.770;2022-08-14T07:18:33;2.50;;;2.40;;
14849;SDS011;7517;48.400;11.770;2022-08-14T07:21:02;2.50;;;2.30;;
14849;SDS011;7517;48.400;11.770;2022-08-14T07:23:31;2.20;;;2.10;;
14849;SDS011;7517;48.400;11.770;2022-08-14T07:26:00;2.30;;;2.10;;
14849;SDS011;7517;48.400;11.770;2022-08-14T07:28:30;2.03;;;1.93;;
14849;SDS011;7517;48.400;11.770;2022-08-14T07:31:00;2.10;;;2.00;;
14849;SDS011;7517;48.400;11.770;2022-08-14T07:33:31;2.30;;;2.10;;
14849;SDS011;7517;48.400;11.770;2022-08-14T07:36:05;2.00;;;1.90;;
14849;SDS011;7517;48.400;11.770;2022-08-14T07:38:35;2.00;;;1.90;;
14849;SDS011;7517;48.400;11.770;2022-08-14T07:41:06;2.20;;;2.10;;
14849;SDS011;7517;48.400;11.770;2022-08-14T07:43:35;1.80;;;1.70;;
14849;SDS011;7517;48.400;11.770;2022-08-14T07:46:03;1.70;;;1.60;;
14849;SDS011;7517;48.400;11.770;2022-08-14T07:48:35;1.87;;;1.77;;
14849;SDS011;7517;48.400;11.770;2022-08-14T07:51:04;1.80;;;1.70;;
14849;SDS011;7517;48.400;11.770;2022-08-14T07:53:32;1.90;;;1.80;;
14849;SDS011;7517;48.400;11.770;2022-08-14T07:55:59;1.90;;;1.63;;
14849;SDS011;7517;48.400;11.770;2022-08-14T07:58:28;1.70;;;1.50;;
14849;SDS011;7517;48.400;11.770;2022-08-14T08:00:55;1.53;;;1.43;;
14849;SDS011;7517;48.400;11.770;2022-08-14T08:03:23;1.53;;;1.43;;
14849;SDS011;7517;48.400;11.770;2022-08-14T08:05:52;1.50;;;1.40;;
14849;SDS011;7517;48.400;11.770;2022-08-14T08:08:19;1.97;;;1.70;;
14849;SDS011;7517;48.400;11.770;2022-08-14T08:10:47;1.67;;;1.57;;
14849;SDS011;7517;48.400;11.770;2022-08-14T08:13:16;1.60;;;1.50;;
14849;SDS011;7517;48.400;11.770;2022-08-14T08:15:48;1.20;;;1.20;;
14849;SDS011;7517;48.400;11.770;2022-08-14T08:18:19;1.50;;;1.40;;
14849;SDS011;7517;48.400;11.770;2022-08-14T08:20:47;2.07;;;1.97;;
14849;SDS011;7517;48.400;11.770;2022-08-14T08:23:18;1.90;;;1.80;;
14849;SDS011;7517;48.400;11.770;2022-08-14T08:25:48;1.83;;;1.73;;
14849;SDS011;7517;48.400;11.770;2022-08-14T08:28:17;1.40;;;1.20;;
14849;SDS011;7517;48.400;11.770;2022-08-14T08:30:48;1.40;;;1.30;;
14849;SDS011;7517;48.400;11.770;2022-08-14T08:33:17;1.67;;;1.50;;
14849;SDS011;7517;48.400;11.770;2022-08-14T08:35:48;1.40;;;1.30;;
14849;SDS011;7517;48.400;11.770;2022-08-14T08:38:16;1.40;;;1.30;;
14849;SDS011;7517;48.400;11.770;2022-08-14T08:40:47;1.90;;;1.30;;
14849;SDS011;7517;48.400;11.770;2022-08-14T08:43:18;1.67;;;1.40;;
14849;SDS011;7517;48.400;11.770;2022-08-14T08:45:55;1.37;;;1.33;;
14849;SDS011;7517;48.400;11.770;2022-08-14T08:48:26;1.30;;;1.30;;
14849;SDS011;7517;48.400;11.770;2022-08-14T08:50:55;1.55;;;1.33;;
14849;SDS011;7517;48.400;11.770;2022-08-14T08:53:28;1.10;;;1.10;;
14849;SDS011;7517;48.400;11.770;2022-08-14T08:55:56;1.48;;;1.45;;
14849;SDS011;7517;48.400;11.770;2022-08-14T08:58:24;1.33;;;1.30;;
14849;SDS011;7517;48.400;11.770;2022-08-14T09:00:53;1.20;;;1.10;;
14849;SDS011;7517;48.400;11.770;2022-08-14T09:03:25;1.40;;;1.30;;
14849;SDS011;7517;48.400;11.770;2022-08-14T09:05:57;1.42;;;1.33;;
14849;SDS011;7517;48.400;11.770;2022-08-14T09:08:28;1.40;;;1.30;;
14849;SDS011;7517;48.400;11.770;2022-08-14T09:10:57;1.25;;;1.25;;
14849;SDS011;7517;48.400;11.770;2022-08-14T09:13:27;0.95;;;0.95;;
14849;SDS011;7517;48.400;11.770;2022-08-14T09:15:56;1.00;;;0.90;;
14849;SDS011;7517;48.400;11.770;2022-08-14T09:18:26;1.35;;;1.25;;
14849;SDS011;7517;48.400;11.770;2022-08-14T09:20:54;1.52;;;1.35;;
14849;SDS011;7517;48.400;11.770;2022-08-14T09:23:22;2.95;;;1.30;;
14849;SDS011;7517;48.400;11.770;2022-08-14T09:25:50;1.27;;;1.15;;
14849;SDS011;7517;48.400;11.770;2022-08-14T09:28:18;1.10;;;1.10;;
14849;SDS011;7517;48.400;11.770;2022-08-14T09:30:48;1.65;;;1.10;;
14849;SDS011;7517;48.400;11.770;2022-08-14T09:33:28;1.60;;;1.50;;
14849;SDS011;7517;48.400;11.770;2022-08-14T09:36:29;1.10;;;1.00;;
14849;SDS011;7517;48.400;11.770;2022-08-14T09:39:12;0.93;;;0.93;;
14849;SDS011;7517;48.400;11.770;2022-08-14T09:42:08;1.00;;;1.00;;
14849;SDS011;7517;48.400;11.770;2022-08-14T09:45:04;1.67;;;0.93;;
14849;SDS011;7517;48.400;11.770;2022-08-14T09:47:42;1.05;;;1.05;;
14849;SDS011;7517;48.400;11.770;2022-08-14T09:50:24;1.05;;;1.05;;
14849;SDS011;7517;48.400;11.770;2022-08-14T09:52:55;1.25;;;1.20;;
14849;SDS011;7517;48.400;11.770;2022-08-14T09:55:26;1.10;;;1.10;;
14849;SDS011;7517;48.400;11.770;2022-08-14T09:58:07;1.20;;;1.20;;
14849;SDS011;7517;48.400;11.770;2022-08-14T10:00:43;1.33;;;1.08;;
14849;SDS011;7517;48.400;11.770;2022-08-14T10:03:22;1.48;;;1.38;;
14849;SDS011;7517;48.400;11.770;2022-08-14T10:06:04;1.00;;;1.00;;
14849;SDS011;7517;48.400;11.770;2022-08-14T10:08:40;1.45;;;1.35;;
14849;SDS011;7517;48.400;11.770;2022-08-14T10:11:18;0.90;;;0.90;;
14849;SDS011;7517;48.400;11.770;2022-08-14T10:13:49;1.10;;;1.10;;
14849;SDS011;7517;48.400;11.770;2022-08-14T10:16:19;1.40;;;1.30;;
14849;SDS011;7517;48.400;11.770;2022-08-14T10:18:59;1.15;;;1.15;;
14849;SDS011;7517;48.400;11.770;2022-08-14T10:21:31;1.60;;;1.15;;
14849;SDS011;7517;48.400;11.770;2022-08-14T10:24:00;0.80;;;0.80;;
14849;SDS011;7517;48.400;11.770;2022-08-14T10:26:33;1.05;;;0.98;;
14849;SDS011;7517;48.400;11.770;2022-08-14T10:29:04;2.80;;;1.23;;
14849;SDS011;7517;48.400;11.770;2022-08-14T10:31:35;0.80;;;0.80;;
14849;SDS011;7517;48.400;11.770;2022-08-14T10:34:03;1.38;;;1.10;;
14849;SDS011;7517;48.400;11.770;2022-08-14T10:36:35;0.98;;;0.98;;
14849;SDS011;7517;48.400;11.770;2022-08-14T10:39:06;0.90;;;0.90;;
14849;SDS011;7517;48.400;11.770;2022-08-14T10:41:42;1.00;;;1.00;;
14849;SDS011;7517;48.400;11.770;2022-08-14T10:44:11;1.10;;;1.10;;
14849;SDS011;7517;48.400;11.770;2022-08-14T10:46:42;1.00;;;1.00;;
14849;SDS011;7517;48.400;11.770;2022-08-14T10:49:18;0.90;;;0.90;;
14849;SDS011;7517;48.400;11.770;2022-08-14T10:51:59;0.90;;;0.90;;
14849;SDS011;7517;48.400;11.770;2022-08-14T10:54:32;1.92;;;1.13;;
14849;SDS011;7517;48.400;11.770;2022-08-14T10:57:15;1.13;;;1.10;;
14849;SDS011;7517;48.400;11.770;2022-08-14T10:59:46;1.00;;;1.00;;
14849;SDS011;7517;48.400;11.770;2022-08-14T11:02:21;0.93;;;0.93;;
14849;SDS011;7517;48.400;11.770;2022-08-14T11:04:57;1.00;;;0.93;;
14849;SDS011;7517;48.400;11.770;2022-08-14T11:07:29;1.02;;;1.02;;
14849;SDS011;7517;48.400;11.770;2022-08-14T11:09:58;1.17;;;1.10;;
14849;SDS011;7517;48.400;11.770;2022-08-14T11:12:38;1.20;;;1.00;;
14849;SDS011;7517;48.400;11.770;2022-08-14T11:15:12;1.10;;;1.10;;
14849;SDS011;7517;48.400;11.770;2022-08-14T11:17:42;1.67;;;1.13;;
14849;SDS011;7517;48.400;11.770;2022-08-14T11:20:11;1.13;;;1.10;;
14849;SDS011;7517;48.400;11.770;2022-08-14T11:22:42;1.25;;;1.15;;
14849;SDS011;7517;48.400;11.770;2022-08-14T11:25:11;1.10;;;1.10;;
14849;SDS011;7517;48.400;11.770;2022-08-14T11:27:41;1.50;;;1.40;;
14849;SDS011;7517;48.400;11.770;2022-08-14T11:30:11;1.33;;;1.27;;
14849;SDS011;7517;48.400;11.770;2022-08-14T11:32:42;1.58;;;1.48;;
14849;SDS011;7517;48.400;11.770;2022-08-14T11:35:12;1.55;;;1.30;;
14849;SDS011;7517;48.400;11.770;2022-08-14T11:37:54;1.30;;;1.30;;
14849;SDS011;7517;48.400;11.770;2022-08-14T11:40:24;1.77;;;1.20;;
14849;SDS011;7517;48.400;11.770;2022-08-14T11:42:53;1.52;;;1.48;;
14849;SDS011;7517;48.400;11.770;2022-08-14T11:45:22;1.45;;;1.35;;
14849;SDS011;7517;48.400;11.770;2022-08-14T11:47:52;1.40;;;1.30;;
14849;SDS011;7517;48.400;11.770;2022-08-14T11:50:21;1.20;;;1.20;;
14849;SDS011;7517;48.400;11.770;2022-08-14T11:52:53;1.38;;;1.38;;
14849;SDS011;7517;48.400;11.770;2022-08-14T11:55:23;1.17;;;1.17;;
14849;SDS011;7517;48.400;11.770;2022-08-14T11:57:58;1.45;;;1.35;;
14849;SDS011;7517;48.400;11.770;2022-08-14T12:00:27;1.40;;;1.30;;
14849;SDS011;7517;48.400;11.770;2022-08-14T12:02:57;1.40;;;1.30;;
14849;SDS011;7517;48.400;11.770;2022-08-14T12:05:29;2.45;;;1.40;;
14849;SDS011;7517;48.400;11.770;2022-08-14T12:08:01;1.17;;;1.17;;
14849;SDS011;7517;48.400;11.770;2022-08-14T12:10:31;2.22;;;1.67;;
14849;SDS011;7517;48.400;11.770;2022-08-14T12:13:09;3.83;;;1.70;;
14849;SDS011;7517;48.400;11.770;2022-08-14T12:15:39;1.55;;;1.30;;
14849;SDS011;7517;48.400;11.770;2022-08-14T12:18:08;1.30;;;1.20;;
14849;SDS011;7517;48.400;11.770;2022-08-14T12:20:36;1.33;;;1.23;;
14849;SDS011;7517;48.400;11.770;2022-08-14T12:23:21;1.42;;;1.33;;
14849;SDS011;7517;48.400;11.770;2022-08-14T12:26:00;1.00;;;1.00;;
14849;SDS011;7517;48.400;11.770;2022-08-14T12:28:28;1.52;;;1.23;;
14849;SDS011;7517;48.400;11.770;2022-08-14T12:30:56;1.40;;;1.17;;
14849;SDS011;7517;48.400;11.770;2022-08-14T12:33:24;1.10;;;1.10;;
14849;SDS011;7517;48.400;11.770;2022-08-14T12:35:55;1.60;;;1.30;;
14849;SDS011;7517;48.400;11.770;2022-08-14T12:38:32;1.42;;;1.38;;
14849;SDS011;7517;48.400;11.770;2022-08-14T12:41:03;1.40;;;1.30;;
14849;SDS011;7517;48.400;11.770;2022-08-14T12:43:43;1.98;;;1.40;;
14849;SDS011;7517;48.400;11.770;2022-08-14T12:46:19;1.92;;;1.35;;
14849;SDS011;7517;48.400;11.770;2022-08-14T12:48:52;1.40;;;1.40;;
14849;SDS011;7517;48.400;11.770;2022-08-14T12:51:21;1.52;;;1.45;;
14849;SDS011;7517;48.400;11.770;2022-08-14T12:53:52;1.40;;;1.30;;
14849;SDS011;7517;48.400;11.770;2022-08-14T12:56:21;1.08;;;1.08;;
14849;SDS011;7517;48.400;11.770;2022-08-14T12:58:51;1.00;;;1.00;;
14849;SDS011;7517;48.400;11.770;2022-08-14T13:01:21;1.35;;;1.25;;
14849;SDS011;7517;48.400;11.770;2022-08-14T13:04:00;3.83;;;1.63;;
14849;SDS011;7517;48.400;11.770;2022-08-14T13:06:32;1.30;;;1.30;;
14849;SDS011;7517;48.400;11.770;2022-08-14T13:09:01;1.35;;;1.33;;
14849;SDS011;7517;48.400;11.770;2022-08-14T13:11:33;1.15;;;1.15;;
14849;SDS011;7517;48.400;11.770;2022-08-14T13:14:05;1.38;;;1.27;;
14849;SDS011;7517;48.400;11.770;2022-08-14T13:16:33;1.23;;;1.23;;
14849;SDS011;7517;48.400;11.770;2022-08-14T13:19:01;1.42;;;1.33;;
14849;SDS011;7517;48.400;11.770;2022-08-14T13:21:29;1.40;;;1.30;;
14849;SDS011;7517;48.400;11.770;2022-08-14T13:23:57;1.40;;;1.40;;
14849;SDS011;7517;48.400;11.770;2022-08-14T13:26:28;1.10;;;1.10;;
14849;SDS011;7517;48.400;11.770;2022-08-14T13:28:58;1.52;;;1.42;;
14849;SDS011;7517;48.400;11.770;2022-08-14T13:31:28;1.83;;;1.38;;
14849;SDS011;7517;48.400;11.770;2022-08-14T13:33:58;4.30;;;1.50;;
14849;SDS011;7517;48.400;11.770;2022-08-14T13:36:27;1.50;;;1.40;;
14849;SDS011;7517;48.400;11.770;2022-08-14T13:38:54;1.35;;;1.33;;
14849;SDS011;7517;48.400;11.770;2022-08-14T13:41:24;1.23;;;1.23;;
14849;SDS011;7517;48.400;11.770;2022-08-14T13:43:53;1.58;;;1.33;;
14849;SDS011;7517;48.400;11.770;2022-08-14T13:46:21;1.38;;;1.27;;
14849;SDS011;7517;48.400;11.770;2022-08-14T13:48:48;1.38;;;1.27;;
14849;SDS011;7517;48.400;11.770;2022-08-14T13:51:16;1.52;;;1.42;;
14849;SDS011;7517;48.400;11.770;2022-08-14T13:53:51;1.42;;;1.33;;
14849;SDS011;7517;48.400;11.770;2022-08-14T13:56:27;1.60;;;1.50;;
14849;SDS011;7517;48.400;11.770;2022-08-14T13:58:56;1.42;;;1.33;;
14849;SDS011;7517;48.400;11.770;2022-08-14T14:01:25;2.60;;;1.38;;
14849;SDS011;7517;48.400;11.770;2022-08-14T14:03:54;1.27;;;1.27;;
14849;SDS011;7517;48.400;11.770;2022-08-14T14:06:22;1.30;;;1.30;;
14849;SDS011;7517;48.400;11.770;2022-08-14T14:08:53;2.28;;;1.60;;
14849;SDS011;7517;48.400;11.770;2022-08-14T14:11:21;1.33;;;1.23;;
14849;SDS011;7517;48.400;11.770;2022-08-14T14:13:52;1.25;;;1.23;;
14849;SDS011;7517;48.400;11.770;2022-08-14T14:16:23;1.23;;;1.20;;
14849;SDS011;7517;48.400;11.770;2022-08-14T14:18:52;1.65;;;1.42;;
14849;SDS011;7517;48.400;11.770;2022-08-14T14:21:25;1.50;;;1.40;;
14849;SDS011;7517;48.400;11.770;2022-08-14T14:23:54;1.50;;;1.40;;
14849;SDS011;7517;48.400;11.770;2022-08-14T14:26:22;1.15;;;1.15;;
14849;SDS011;7517;48.400;11.770;2022-08-14T14:28:50;1.55;;;1.45;;
14849;SDS011;7517;48.400;11.770;2022-08-14T14:31:22;1.30;;;1.20;;
14849;SDS011;7517;48.400;11.770;2022-08-14T14:33:55;1.35;;;1.25;;
14849;SDS011;7517;48.400;11.770;2022-08-14T14:36:25;2.03;;;1.60;;
14849;SDS011;7517;48.400;11.770;2022-08-14T14:38:57;1.50;;;1.40;;
14849;SDS011;7517;48.400;11.770;2022-08-14T14:41:27;1.52;;;1.42;;
14849;SDS011;7517;48.400;11.770;2022-08-14T14:43:58;1.20;;;1.20;;
14849;SDS011;7517;48.400;11.770;2022-08-14T14:46:26;4.65;;;1.65;;
14849;SDS011;7517;48.400;11.770;2022-08-14T14:49:03;1.40;;;1.30;;
14849;SDS011;7517;48.400;11.770;2022-08-14T14:51:32;1.10;;;1.10;;
14849;SDS011;7517;48.400;11.770;2022-08-14T14:54:00;1.02;;;1.02;;
14849;SDS011;7517;48.400;11.770;2022-08-14T14:56:28;1.50;;;1.40;;
14849;SDS011;7517;48.400;11.770;2022-08-14T14:58:57;1.20;;;1.20;;
14849;SDS011;7517;48.400;11.770;2022-08-14T15:01:25;3.20;;;1.40;;
14849;SDS011;7517;48.400;11.770;2022-08-14T15:03:53;2.63;;;1.30;;
14849;SDS011;7517;48.400;11.770;2022-08-14T15:06:20;1.65;;;1.30;;
14849;SDS011;7517;48.400;11.770;2022-08-14T15:08:49;1.20;;;1.08;;